KMHV/MHV METAR and TAF weather

Enter ICAO airport designator
Station Type Date Time Source
KMHV METAR 2021/09/28 17:20 UTC NOAA

KMHV 281720Z AUTO 28028G41KT 6SM HZ CLR 19/08 A2989 RMK A01


Station Type Date Time Source
KMHV Decoded METAR 2021/09/28 17:20 UTC NOAA

Mojave, CA, United States (KMHV) 35-04N 118-09W
Sep 28, 2021 - 01:20 PM EDT / 2021.09.28 1720 UTC
Wind: from the W (280 degrees) at 32 MPH (28 KT) gusting to 47 MPH (41 KT):0
Visibility: 6 mile(s):0
Sky conditions: clear
Weather: haze
Temperature: 66 F (19 C)
Dew Point: 46 F (8 C)
Relative Humidity: 48%
Pressure (altimeter): 29.89 in. Hg (1012 hPa)
ob: KMHV 281720Z AUTO 28028G41KT 6SM HZ CLR 19/08 A2989 RMK A01
cycle: 17

Station Type Date Time Source
KMHV TAF UTC NOAA

Error!

Example: see airport list